createdAt,value
2022-11-23T00:01:39.829Z,99119.47
2022-11-23T00:06:43.139Z,99116.22
2022-11-23T00:11:47.148Z,99104.91
2022-11-23T00:16:49.739Z,99099.53
2022-11-23T00:21:52.329Z,99102.25
2022-11-23T00:26:56.555Z,99111.41
2022-11-23T00:31:59.113Z,99105.22
2022-11-23T00:37:01.695Z,99100.59
2022-11-23T00:42:06.007Z,99104.69
2022-11-23T00:47:08.594Z,99107.09
2022-11-23T00:52:11.290Z,99115.19
2022-11-23T00:57:15.457Z,99115.19
2022-11-23T01:02:18.241Z,99129.75
2022-11-23T01:07:20.962Z,99126.28
2022-11-23T01:12:25.346Z,99124.63
2022-11-23T01:17:27.917Z,99130.03
2022-11-23T01:22:30.534Z,99114.66
2022-11-23T01:27:34.572Z,99125.19
2022-11-23T01:32:37.286Z,99131.38
2022-11-23T01:37:39.918Z,99136.78
2022-11-23T01:42:53.782Z,99130.78
2022-11-23T01:47:56.483Z,99125.41
2022-11-23T01:52:59.410Z,99127.81
2022-11-23T01:58:04.799Z,99140.25
2022-11-23T02:03:08.368Z,99153.41
2022-11-23T02:08:12.674Z,99154.53
2022-11-23T02:13:16.886Z,99163.69
2022-11-23T02:18:23.974Z,99164.63
2022-11-23T02:23:34.791Z,99149.53
2022-11-23T02:28:43.412Z,99154.63
2022-11-23T02:33:46.032Z,99161.16
2022-11-23T02:38:48.992Z,99171.66
2022-11-23T02:43:57.677Z,99172.16
2022-11-23T02:49:00.385Z,99167.16
2022-11-23T02:54:03.347Z,99160.50
2022-11-23T02:59:07.379Z,99170.09
2022-11-23T03:04:10.702Z,99177.66
2022-11-23T03:09:13.512Z,99180.84
2022-11-23T03:14:17.571Z,99181.75
2022-11-23T03:19:20.160Z,99192.38
2022-11-23T03:24:22.812Z,99191.56
2022-11-23T03:29:28.007Z,99182.47
2022-11-23T03:34:30.689Z,99179.59
2022-11-23T03:39:33.644Z,99184.38
2022-11-23T03:44:37.762Z,99188.25
2022-11-23T03:49:40.392Z,99188.84
2022-11-23T03:54:43.076Z,99191.97
2022-11-23T03:59:47.022Z,99192.53
2022-11-23T04:04:49.818Z,99187.94
2022-11-23T04:09:52.393Z,99188.94
2022-11-23T04:14:57.407Z,99182.47
2022-11-23T04:20:00.058Z,99175.44
2022-11-23T04:25:02.991Z,99176.34
2022-11-23T04:30:08.215Z,99170.47
2022-11-23T04:35:10.805Z,99179.28
2022-11-23T04:40:14.912Z,99174.72
2022-11-23T04:45:18.904Z,99177.13
2022-11-23T04:50:21.616Z,99169.59
2022-11-23T04:55:24.446Z,99167.53
2022-11-23T05:00:29.985Z,99171.19
2022-11-23T05:05:32.667Z,99167.91
2022-11-23T05:10:36.013Z,99162.59
2022-11-23T05:15:40.059Z,99170.19
2022-11-23T05:20:42.716Z,99163.66
2022-11-23T05:25:45.475Z,99162.63
2022-11-23T05:30:49.782Z,99168.25
2022-11-23T05:35:52.496Z,99165.56
2022-11-23T05:40:55.193Z,99172.47
2022-11-23T05:46:01.346Z,99176.31
2022-11-23T05:51:05.662Z,99179.88
2022-11-23T05:56:08.628Z,99172.06
2022-11-23T06:01:13.769Z,99170.75
2022-11-23T06:06:16.375Z,99158.91
2022-11-23T06:11:19.029Z,99157.31
2022-11-23T06:16:23.045Z,99157.84
2022-11-23T06:21:25.821Z,99165.09
2022-11-23T06:26:28.567Z,99168.84
2022-11-23T06:31:32.950Z,99164.25
2022-11-23T06:36:35.794Z,99167.53
2022-11-23T06:41:38.550Z,99169.66
2022-11-23T06:46:42.565Z,99180.69
2022-11-23T06:51:46.372Z,99177.63
2022-11-23T06:56:48.953Z,99189.50
2022-11-23T07:01:53.260Z,99201.41
2022-11-23T07:06:56.123Z,99212.72
2022-11-23T07:11:58.772Z,99200.91
2022-11-23T07:17:03.003Z,99198.16
2022-11-23T07:22:05.629Z,99198.78
2022-11-23T07:27:08.308Z,99202.66
2022-11-23T07:32:14.881Z,99205.31
2022-11-23T07:37:17.530Z,99214.50
2022-11-23T07:42:44.562Z,99212.06
2022-11-23T07:47:47.041Z,99212.78
2022-11-23T07:52:49.617Z,99219.28
2022-11-23T07:57:55.914Z,99226.53
2022-11-23T08:08:24.063Z,99243.94
2022-11-23T08:13:26.751Z,99246.19
2022-11-23T08:18:30.888Z,99241.09
2022-11-23T08:23:33.540Z,99245.75
2022-11-23T08:28:37.836Z,99251.88
2022-11-23T08:33:42.054Z,99244.09
2022-11-23T08:38:44.901Z,99244.69
2022-11-23T08:43:47.654Z,99247.38
2022-11-23T08:48:51.723Z,99240.84
2022-11-23T08:53:54.548Z,99246.25
2022-11-23T08:58:57.200Z,99247.16
2022-11-23T09:04:01.934Z,99257.84
2022-11-23T09:09:10.966Z,99263.78
2022-11-23T09:14:13.562Z,99264.94
2022-11-23T09:19:17.635Z,99265.69
2022-11-23T09:24:20.407Z,99262.25
2022-11-23T09:29:23.107Z,99264.94
2022-11-23T09:34:27.327Z,99254.75
2022-11-23T09:39:29.892Z,99251.88
2022-11-23T09:44:44.796Z,99245.13
2022-11-23T09:49:59.966Z,99243.31
2022-11-23T09:55:10.356Z,99239.28
2022-11-23T10:00:21.906Z,99246.75
2022-11-23T10:05:28.995Z,99249.31
2022-11-23T10:10:41.743Z,99256.22
2022-11-23T10:16:00.989Z,99256.72
2022-11-23T10:21:15.562Z,99250.47
2022-11-23T10:26:20.413Z,99248.38
2022-11-23T10:31:25.952Z,99246.03
2022-11-23T10:36:36.525Z,99238.66
2022-11-23T10:41:39.150Z,99239.84
2022-11-23T10:46:42.223Z,99237.88
2022-11-23T10:51:57.907Z,99234.13
2022-11-23T10:57:02.858Z,99235.25
2022-11-23T11:02:20.336Z,99234.75
2022-11-23T11:07:28.412Z,99232.28
2022-11-23T11:12:35.429Z,99237.75
2022-11-23T11:17:40.990Z,99228.31
2022-11-23T11:22:47.875Z,99228.50
2022-11-23T11:27:53.308Z,99216.34
2022-11-23T11:33:05.126Z,99208.66
2022-11-23T11:38:15.873Z,99210.78
2022-11-23T11:43:29.289Z,99213.94
2022-11-23T11:48:39.086Z,99203.56
2022-11-23T11:53:50.429Z,99214.19
2022-11-23T11:59:00.195Z,99208.63
2022-11-23T12:04:08.074Z,99204.25
2022-11-23T12:09:17.095Z,99215.66
2022-11-23T12:14:20.091Z,99207.09
2022-11-23T12:19:27.738Z,99202.69
2022-11-23T12:24:47.085Z,99203.09
2022-11-23T12:30:13.521Z,99191.94
2022-11-23T12:35:35.847Z,99190.19
2022-11-23T12:41:23.470Z,99209.59
2022-11-23T12:46:37.437Z,99202.16
2022-11-23T12:51:48.073Z,99193.63
2022-11-23T12:57:00.665Z,99195.34
2022-11-23T13:02:10.661Z,99199.03
2022-11-23T13:07:46.081Z,99201.38
2022-11-23T13:13:14.065Z,99199.84
2022-11-23T13:18:28.703Z,99193.78
2022-11-23T13:23:37.286Z,99200.63
2022-11-23T13:28:41.434Z,99192.44
2022-11-23T13:33:45.651Z,99203.22
2022-11-23T13:38:48.417Z,99194.84
2022-11-23T13:43:52.872Z,99189.28
2022-11-23T13:48:57.530Z,99192.00
2022-11-23T13:54:02.530Z,99191.03
2022-11-23T13:59:30.773Z,99181.50
2022-11-23T14:04:35.095Z,99190.41
2022-11-23T14:09:46.508Z,99189.88
2022-11-23T14:14:57.168Z,99195.81
2022-11-23T14:20:15.137Z,99185.44
2022-11-23T14:25:35.771Z,99186.78
2022-11-23T14:31:05.909Z,99185.78
2022-11-23T14:36:21.136Z,99190.41
2022-11-23T14:41:25.599Z,99193.09
2022-11-23T14:46:30.463Z,99206.03
2022-11-23T14:51:34.832Z,99212.47
2022-11-23T14:56:43.851Z,99199.66
2022-11-23T15:01:51.322Z,99199.25
2022-11-23T15:06:58.941Z,99195.75
2022-11-23T15:12:10.116Z,99198.44
2022-11-23T15:17:19.192Z,99208.25
2022-11-23T15:22:22.223Z,99204.94
2022-11-23T15:27:29.294Z,99200.69
2022-11-23T15:32:35.071Z,99209.03
2022-11-23T15:37:44.585Z,99206.91
2022-11-23T15:42:50.961Z,99201.44
2022-11-23T15:47:54.953Z,99200.28
2022-11-23T15:53:00.578Z,99206.00
2022-11-23T15:58:08.925Z,99198.31
2022-11-23T16:03:30.197Z,99204.44
2022-11-23T16:08:37.457Z,99204.28
2022-11-23T16:13:40.703Z,99209.00
2022-11-23T16:18:47.629Z,99214.78
2022-11-23T16:23:54.099Z,99225.56
2022-11-23T16:28:58.592Z,99231.88
2022-11-23T16:34:02.679Z,99230.63
2022-11-23T16:39:05.967Z,99225.47
2022-11-23T16:44:08.685Z,99237.34
2022-11-23T16:49:16.960Z,99226.84
2022-11-23T16:54:31.775Z,99230.34
2022-11-23T16:59:35.621Z,99232.41
2022-11-23T17:04:39.878Z,99237.72
2022-11-23T17:09:42.622Z,99233.84
2022-11-23T17:14:48.575Z,99239.53
2022-11-23T17:19:52.967Z,99239.31
2022-11-23T17:24:55.676Z,99249.56
2022-11-23T17:30:00.756Z,99249.34
2022-11-23T17:35:05.344Z,99250.44
2022-11-23T17:40:14.175Z,99256.03
2022-11-23T17:45:19.396Z,99252.66
2022-11-23T17:50:25.095Z,99258.66
2022-11-23T17:55:27.767Z,99265.81
2022-11-23T18:00:31.005Z,99269.50
2022-11-23T18:05:35.140Z,99276.22
2022-11-23T18:10:38.056Z,99285.50
2022-11-23T18:15:40.736Z,99287.28
2022-11-23T18:20:44.821Z,99302.75
2022-11-23T18:25:47.476Z,99301.97
2022-11-23T18:30:50.169Z,99295.19
2022-11-23T18:35:54.243Z,99295.59
2022-11-23T18:40:56.885Z,99305.84
2022-11-23T18:45:59.851Z,99318.53
2022-11-23T18:51:06.139Z,99318.28
2022-11-23T18:56:10.415Z,99316.34
2022-11-23T19:01:15.269Z,99334.47
2022-11-23T19:06:20.597Z,99349.09
2022-11-23T19:11:25.897Z,99351.22
2022-11-23T19:16:31.320Z,99354.97
2022-11-23T19:21:36.746Z,99371.72
2022-11-23T19:26:39.410Z,99384.88
2022-11-23T19:31:42.375Z,99380.00
2022-11-23T19:36:46.357Z,99384.00
2022-11-23T19:41:49.111Z,99393.69
2022-11-23T19:46:51.744Z,99391.28
2022-11-23T19:51:56.937Z,99389.66
2022-11-23T19:56:59.550Z,99395.63
2022-11-23T20:02:02.206Z,99395.06
2022-11-23T20:07:06.797Z,99394.00
2022-11-23T20:12:09.260Z,99400.25
2022-11-23T20:17:11.816Z,99394.44
2022-11-23T20:22:15.850Z,99402.56
2022-11-23T20:27:18.459Z,99401.97
2022-11-23T20:32:21.010Z,99400.59
2022-11-23T20:37:25.024Z,99402.72
2022-11-23T20:42:27.605Z,99406.13
2022-11-23T20:47:30.262Z,99421.47
2022-11-23T20:52:34.737Z,99416.31
2022-11-23T20:57:37.281Z,99419.81
2022-11-23T21:02:39.938Z,99424.56
2022-11-23T21:07:44.163Z,99425.44
2022-11-23T21:13:04.337Z,99428.56
2022-11-23T21:18:07.217Z,99426.00
2022-11-23T21:23:11.396Z,99426.59
2022-11-23T21:28:13.985Z,99431.94
2022-11-23T21:33:16.558Z,99437.69
2022-11-23T21:38:23.371Z,99436.69
2022-11-23T21:43:26.081Z,99437.94
2022-11-23T21:48:28.807Z,99439.41
2022-11-23T21:53:33.416Z,99446.09
2022-11-23T21:58:36.319Z,99446.41
2022-11-23T22:03:40.267Z,99436.06
2022-11-23T22:08:45.888Z,99450.09
2022-11-23T22:13:49.470Z,99454.72
2022-11-23T22:18:55.806Z,99461.22
2022-11-23T22:24:01.025Z,99463.16
2022-11-23T22:29:06.656Z,99468.50
2022-11-23T22:34:13.113Z,99478.31
2022-11-23T22:39:17.014Z,99487.69
2022-11-23T22:44:19.596Z,99500.53
2022-11-23T22:49:22.191Z,99501.88
2022-11-23T22:54:26.141Z,99501.31
2022-11-23T22:59:28.724Z,99504.88
2022-11-23T23:04:31.662Z,99504.94
2022-11-23T23:09:35.820Z,99498.31
2022-11-23T23:14:38.392Z,99498.41
2022-11-23T23:19:41.112Z,99486.00
2022-11-23T23:24:45.036Z,99489.91
2022-11-23T23:29:47.652Z,99495.03
2022-11-23T23:34:50.228Z,99500.75
2022-11-23T23:39:54.143Z,99499.47
2022-11-23T23:44:56.917Z,99502.34
2022-11-23T23:49:59.493Z,99499.72
2022-11-23T23:55:03.467Z,99506.06
